map of CBT home
Great Circle Mapper logo
CBT - Airport
Location
City:  Catumbela, Angola
ICAO:FNCT
IATA:CBT

Details
Type:Airport (Aerodrome, Airfield)
Latitude:1228'45"S (-12.479166)
Longitude:1329'13"E (13.486944)
Variation:5.33W (WMM2015 magnetic declination)
0.18 annual change
Runways:1
Longest:12139 × 98 ft (3700 × 30 m)

Time
Time Zone:UTC+1
Local Time:

Weather
TAF:FNCT 291100Z 2912/2924 32010KT CAVOK
BECMG 2918/2920 20005KT 9999 SCT030

Related Locations
Nearby:
Farthest:PLPA: 11890 mi / 19136 km
Palmyra Island Atoll [Palmyra Airport (Cooper)], UM

Find:

   beyond  
but within

Other Information
Maps:
NOTAMs:
Links:
Sources:

  
flag of Angola   

Sectional Chart

Flight Planning
at skyvector.com

Satellite Image

Google Maps Satellite view

 

Copyright © 2004-2016 Karl L. Swartz. All rights reserved.
The Great Circle Mapper name and logo are trademarks of the Great Circle Mapper.
All other trademarks mentioned herein belong to their respective owners.
Please see credits for attibutions and further copyright information.

  Follow gcmap on Facebook Follow gcmap on Twitter Follow gcmap on Google+ GCmap on LinkedIn

hCard Microformat

Geo Microformat